createdAt,value
2022-08-31T00:00:30.395Z,0.50
2022-08-31T00:03:17.732Z,0.60
2022-08-31T00:05:46.008Z,0.77
2022-08-31T00:08:14.153Z,0.65
2022-08-31T00:10:46.140Z,0.60
2022-08-31T00:13:14.827Z,0.50
2022-08-31T00:15:43.335Z,0.52
2022-08-31T00:18:12.810Z,0.60
2022-08-31T00:20:41.259Z,0.60
2022-08-31T00:23:13.076Z,0.70
2022-08-31T00:25:44.211Z,0.60
2022-08-31T00:28:13.768Z,0.77
2022-08-31T00:30:42.769Z,0.47
2022-08-31T00:33:13.024Z,0.70
2022-08-31T00:35:42.621Z,0.80
2022-08-31T00:38:14.354Z,0.70
2022-08-31T00:40:46.954Z,0.80
2022-08-31T00:43:36.180Z,0.50
2022-08-31T00:46:04.465Z,0.52
2022-08-31T00:48:34.518Z,0.55
2022-08-31T00:51:02.653Z,0.70
2022-08-31T00:53:31.316Z,0.60
2022-08-31T00:55:59.643Z,0.43
2022-08-31T00:58:27.944Z,0.40
2022-08-31T01:00:56.112Z,0.70
2022-08-31T01:03:24.293Z,0.65
2022-08-31T01:05:54.202Z,0.43
2022-08-31T01:08:30.802Z,0.45
2022-08-31T01:11:00.450Z,0.70
2022-08-31T01:13:30.165Z,0.50
2022-08-31T01:16:01.627Z,0.90
2022-08-31T01:18:30.517Z,0.82
2022-08-31T01:21:18.252Z,0.60
2022-08-31T01:23:48.082Z,0.70
2022-08-31T01:26:18.363Z,0.60
2022-08-31T01:28:46.452Z,0.70
2022-08-31T01:31:21.551Z,0.80
2022-08-31T01:33:50.694Z,0.75
2022-08-31T01:36:21.282Z,0.88
2022-08-31T01:38:52.847Z,0.70
2022-08-31T01:41:22.277Z,0.68
2022-08-31T01:43:54.253Z,0.98
2022-08-31T01:46:22.865Z,0.80
2022-08-31T01:48:52.247Z,0.95
2022-08-31T01:51:22.606Z,0.55
2022-08-31T01:53:56.164Z,0.80
2022-08-31T01:56:30.287Z,0.55
2022-08-31T01:58:58.594Z,0.55
2022-08-31T02:01:34.051Z,0.50
2022-08-31T02:04:04.127Z,0.73
2022-08-31T02:06:32.355Z,0.80
2022-08-31T02:09:02.171Z,0.80
2022-08-31T02:11:30.540Z,0.80
2022-08-31T02:13:59.033Z,0.68
2022-08-31T02:16:30.252Z,0.55
2022-08-31T02:18:58.550Z,0.60
2022-08-31T02:21:27.418Z,0.90
2022-08-31T02:23:55.402Z,0.82
2022-08-31T02:26:25.930Z,0.70
2022-08-31T02:28:54.127Z,0.77
2022-08-31T02:31:22.501Z,0.75
2022-08-31T02:33:50.871Z,0.73
2022-08-31T02:36:18.835Z,0.60
2022-08-31T02:38:47.820Z,0.73
2022-08-31T02:41:16.073Z,0.85
2022-08-31T02:43:45.671Z,0.93
2022-08-31T02:46:13.721Z,0.88
2022-08-31T02:48:41.824Z,1.02
2022-08-31T02:51:11.594Z,0.90
2022-08-31T02:53:39.947Z,0.70
2022-08-31T02:56:09.205Z,0.60
2022-08-31T02:58:37.842Z,0.60
2022-08-31T03:01:07.913Z,0.90
2022-08-31T03:03:37.446Z,0.90
2022-08-31T03:06:08.514Z,0.90
2022-08-31T03:08:36.503Z,0.80
2022-08-31T03:11:07.339Z,0.80
2022-08-31T03:13:36.925Z,0.80
2022-08-31T03:16:10.039Z,0.75
2022-08-31T03:18:38.092Z,0.73
2022-08-31T03:21:08.646Z,1.10
2022-08-31T03:23:39.526Z,0.80
2022-08-31T03:26:07.784Z,0.80
2022-08-31T03:28:40.162Z,0.93
2022-08-31T03:31:10.354Z,0.80
2022-08-31T03:33:38.626Z,0.85
2022-08-31T03:36:06.922Z,0.70
2022-08-31T03:38:35.002Z,0.90
2022-08-31T03:41:03.553Z,0.80
2022-08-31T03:43:31.644Z,0.70
2022-08-31T03:45:59.702Z,0.90
2022-08-31T03:48:29.085Z,0.93
2022-08-31T03:50:57.327Z,0.90
2022-08-31T03:53:25.712Z,1.00
2022-08-31T03:56:01.035Z,1.00
2022-08-31T03:58:29.203Z,1.10
2022-08-31T04:00:57.201Z,0.90
2022-08-31T04:03:25.873Z,1.20
2022-08-31T04:05:55.338Z,1.00
2022-08-31T04:08:25.828Z,1.00
2022-08-31T04:10:54.754Z,1.20
2022-08-31T04:13:28.046Z,1.00
2022-08-31T04:16:00.893Z,1.10
2022-08-31T04:18:29.005Z,1.00
2022-08-31T04:20:58.498Z,0.80
2022-08-31T04:23:30.498Z,1.00
2022-08-31T04:25:59.091Z,0.87
2022-08-31T04:28:27.099Z,0.90
2022-08-31T04:30:55.515Z,1.07
2022-08-31T04:33:23.525Z,0.93
2022-08-31T04:35:51.504Z,1.10
2022-08-31T04:38:20.896Z,1.30
2022-08-31T04:40:52.585Z,1.20
2022-08-31T04:43:24.258Z,1.00
2022-08-31T04:45:52.461Z,0.90
2022-08-31T04:48:20.430Z,1.30
2022-08-31T04:50:50.799Z,0.90
2022-08-31T04:53:20.477Z,1.00
2022-08-31T04:55:48.581Z,0.97
2022-08-31T04:58:18.143Z,0.87
2022-08-31T05:00:46.128Z,1.00
2022-08-31T05:03:14.327Z,0.90
2022-08-31T05:05:42.715Z,1.00
2022-08-31T05:08:11.032Z,1.10
2022-08-31T05:10:41.262Z,0.90
2022-08-31T05:13:09.252Z,1.00
2022-08-31T05:15:43.525Z,1.38
2022-08-31T05:18:12.167Z,1.10
2022-08-31T05:20:41.292Z,0.90
2022-08-31T05:23:10.121Z,1.30
2022-08-31T05:25:41.433Z,1.10
2022-08-31T05:28:09.408Z,0.90
2022-08-31T05:30:37.711Z,0.97
2022-08-31T05:33:05.829Z,1.30
2022-08-31T05:35:36.197Z,1.23
2022-08-31T05:38:04.356Z,1.00
2022-08-31T05:40:32.456Z,1.07
2022-08-31T05:43:05.024Z,1.20
2022-08-31T05:45:33.905Z,1.47
2022-08-31T05:48:02.499Z,1.60
2022-08-31T05:50:35.470Z,1.40
2022-08-31T05:53:04.854Z,1.30
2022-08-31T05:55:33.662Z,1.27
2022-08-31T05:58:06.096Z,1.07
2022-08-31T06:00:37.427Z,1.10
2022-08-31T06:03:06.799Z,1.20
2022-08-31T06:05:36.056Z,1.30
2022-08-31T06:08:06.802Z,1.30
2022-08-31T06:10:36.469Z,0.80
2022-08-31T06:13:06.961Z,1.48
2022-08-31T06:15:39.518Z,1.40
2022-08-31T06:18:13.126Z,1.40
2022-08-31T06:20:41.881Z,1.08
2022-08-31T06:23:10.944Z,1.10
2022-08-31T06:25:39.809Z,1.17
2022-08-31T06:28:16.660Z,1.20
2022-08-31T06:30:55.248Z,1.38
2022-08-31T06:33:24.817Z,1.40
2022-08-31T06:35:53.792Z,1.33
2022-08-31T06:38:22.603Z,1.05
2022-08-31T06:40:51.521Z,1.10
2022-08-31T06:43:20.769Z,1.25
2022-08-31T06:45:51.931Z,1.25
2022-08-31T06:48:21.482Z,1.10
2022-08-31T06:50:57.267Z,1.08
2022-08-31T06:53:25.632Z,1.10
2022-08-31T06:55:53.620Z,1.40
2022-08-31T06:58:21.663Z,1.20
2022-08-31T07:00:51.147Z,1.10
2022-08-31T07:03:33.183Z,1.33
2022-08-31T07:06:06.153Z,1.00
2022-08-31T07:08:34.212Z,1.60
2022-08-31T07:11:03.131Z,1.30
2022-08-31T07:13:31.895Z,1.67
2022-08-31T07:16:09.855Z,1.40
2022-08-31T07:18:38.383Z,1.60
2022-08-31T07:21:13.144Z,1.70
2022-08-31T07:23:42.268Z,1.92
2022-08-31T07:26:14.527Z,2.05
2022-08-31T07:28:43.529Z,1.92
2022-08-31T07:31:19.033Z,1.55
2022-08-31T07:33:48.238Z,1.73
2022-08-31T07:36:17.302Z,1.42
2022-08-31T07:39:03.395Z,1.33
2022-08-31T07:41:49.409Z,1.30
2022-08-31T07:44:21.069Z,1.20
2022-08-31T07:46:55.299Z,1.20
2022-08-31T07:49:23.728Z,1.00
2022-08-31T07:51:52.863Z,1.13
2022-08-31T07:54:23.638Z,1.08
2022-08-31T07:56:53.501Z,1.10
2022-08-31T07:59:23.472Z,0.95
2022-08-31T08:01:56.668Z,1.20
2022-08-31T08:04:26.616Z,1.30
2022-08-31T08:07:00.188Z,1.35
2022-08-31T08:09:30.587Z,1.60
2022-08-31T08:12:04.849Z,1.30
2022-08-31T08:14:33.629Z,1.38
2022-08-31T08:17:03.411Z,1.30
2022-08-31T08:19:31.459Z,1.27
2022-08-31T08:21:59.877Z,1.58
2022-08-31T08:24:29.332Z,1.50
2022-08-31T08:26:57.589Z,2.03
2022-08-31T08:29:26.150Z,1.50
2022-08-31T08:31:56.185Z,1.38
2022-08-31T08:34:29.659Z,1.50
2022-08-31T08:37:01.045Z,1.10
2022-08-31T08:39:29.518Z,1.60
2022-08-31T08:41:58.260Z,1.15
2022-08-31T08:44:30.231Z,1.30
2022-08-31T08:47:03.765Z,1.40
2022-08-31T08:49:39.862Z,1.45
2022-08-31T08:52:13.617Z,1.48
2022-08-31T08:54:45.200Z,1.40
2022-08-31T08:57:15.535Z,1.48
2022-08-31T08:59:44.648Z,1.15
2022-08-31T09:02:19.993Z,1.50
2022-08-31T09:05:04.844Z,1.48
2022-08-31T09:07:56.381Z,1.15
2022-08-31T09:10:32.319Z,1.30
2022-08-31T09:13:10.890Z,1.20
2022-08-31T09:15:49.963Z,1.65
2022-08-31T09:18:37.186Z,1.20
2022-08-31T09:21:20.733Z,1.33
2022-08-31T09:23:53.521Z,1.48
2022-08-31T09:26:27.881Z,1.20
2022-08-31T09:28:56.983Z,1.17
2022-08-31T09:31:37.414Z,1.38
2022-08-31T09:34:09.428Z,1.20
2022-08-31T09:36:40.861Z,0.93
2022-08-31T09:39:21.043Z,1.02
2022-08-31T09:41:50.859Z,0.95
2022-08-31T09:44:33.323Z,1.05
2022-08-31T09:47:04.435Z,1.42
2022-08-31T09:49:36.846Z,1.30
2022-08-31T09:52:21.449Z,1.10
2022-08-31T09:55:14.243Z,1.10
2022-08-31T09:57:53.904Z,1.27
2022-08-31T10:00:33.229Z,1.00
2022-08-31T10:03:13.468Z,0.90
2022-08-31T10:05:44.568Z,1.13
2022-08-31T10:08:31.046Z,1.27
2022-08-31T10:11:01.751Z,1.10
2022-08-31T10:13:37.601Z,1.10
2022-08-31T10:16:14.722Z,1.35
2022-08-31T10:18:57.614Z,0.80
2022-08-31T10:21:36.278Z,1.13
2022-08-31T10:24:26.163Z,1.10
2022-08-31T10:27:04.554Z,1.05
2022-08-31T10:29:39.815Z,1.00
2022-08-31T10:32:17.578Z,1.50
2022-08-31T10:35:06.028Z,1.05
2022-08-31T10:37:44.050Z,1.20
2022-08-31T10:40:18.765Z,0.98
2022-08-31T10:42:59.693Z,0.80
2022-08-31T10:45:29.955Z,1.25
2022-08-31T10:47:58.781Z,1.10
2022-08-31T10:50:35.669Z,1.00
2022-08-31T10:53:13.674Z,1.10
2022-08-31T10:55:51.047Z,1.20
2022-08-31T10:58:34.159Z,1.05
2022-08-31T11:01:08.309Z,1.52
2022-08-31T11:03:53.537Z,1.00
2022-08-31T11:06:29.007Z,0.88
2022-08-31T11:09:04.634Z,0.75
2022-08-31T11:11:43.607Z,1.00
2022-08-31T11:14:48.395Z,1.10
2022-08-31T11:17:33.613Z,1.20
2022-08-31T11:20:26.757Z,1.13
2022-08-31T11:23:15.617Z,0.80
2022-08-31T11:26:13.320Z,0.90
2022-08-31T11:28:48.286Z,0.90
2022-08-31T11:31:23.868Z,1.02
2022-08-31T11:34:15.014Z,1.20
2022-08-31T11:36:50.197Z,0.80
2022-08-31T11:39:36.152Z,1.13
2022-08-31T11:42:10.282Z,0.80
2022-08-31T11:45:01.944Z,0.80
2022-08-31T11:47:35.730Z,1.10
2022-08-31T11:50:09.944Z,0.73
2022-08-31T11:52:48.168Z,1.20
2022-08-31T11:55:28.863Z,1.05
2022-08-31T11:58:30.350Z,1.00
2022-08-31T12:01:03.192Z,1.30
2022-08-31T12:03:50.549Z,0.95
2022-08-31T12:07:00.395Z,1.30
2022-08-31T12:10:02.958Z,1.05
2022-08-31T12:12:44.436Z,1.02
2022-08-31T12:15:20.382Z,1.23
2022-08-31T12:18:04.865Z,0.93
2022-08-31T12:21:07.356Z,1.13
2022-08-31T12:23:39.677Z,1.15
2022-08-31T12:26:46.294Z,0.88
2022-08-31T12:29:29.746Z,0.98
2022-08-31T12:32:18.732Z,0.90
2022-08-31T12:34:57.649Z,0.95
2022-08-31T12:37:28.225Z,1.00
2022-08-31T12:40:22.544Z,1.02
2022-08-31T12:43:02.109Z,1.13
2022-08-31T12:45:48.205Z,1.40
2022-08-31T12:48:31.718Z,0.93
2022-08-31T12:51:08.415Z,0.80
2022-08-31T12:54:01.276Z,0.90
2022-08-31T12:56:42.096Z,1.00
2022-08-31T12:59:40.798Z,0.90
2022-08-31T13:02:16.642Z,1.00
2022-08-31T13:04:46.969Z,0.90
2022-08-31T13:07:21.756Z,0.95
2022-08-31T13:10:04.129Z,1.02
2022-08-31T13:12:32.235Z,0.80
2022-08-31T13:15:00.206Z,0.90
2022-08-31T13:17:39.846Z,0.80
2022-08-31T13:20:08.695Z,0.90
2022-08-31T13:22:41.558Z,1.02
2022-08-31T13:25:19.284Z,1.02
2022-08-31T13:27:49.362Z,0.90
2022-08-31T13:30:20.677Z,1.05
2022-08-31T13:32:51.269Z,0.98
2022-08-31T13:35:22.266Z,1.15
2022-08-31T13:38:00.592Z,1.00
2022-08-31T13:40:29.773Z,0.90
2022-08-31T13:42:59.170Z,1.15
2022-08-31T13:45:30.556Z,0.95
2022-08-31T13:48:00.807Z,0.93
2022-08-31T13:50:34.142Z,1.27
2022-08-31T13:55:54.511Z,1.10
2022-08-31T13:58:29.031Z,0.90
2022-08-31T14:01:23.107Z,0.82
2022-08-31T14:03:57.190Z,1.70
2022-08-31T14:06:39.742Z,0.73
2022-08-31T14:09:17.694Z,0.80
2022-08-31T14:12:03.139Z,1.00
2022-08-31T14:14:40.677Z,1.10
2022-08-31T14:17:17.437Z,0.90
2022-08-31T14:19:47.280Z,1.48
2022-08-31T14:22:18.236Z,1.00
2022-08-31T14:24:47.564Z,1.10
2022-08-31T14:27:15.754Z,1.00
2022-08-31T14:29:43.904Z,1.00
2022-08-31T14:32:11.969Z,1.10
2022-08-31T14:34:47.251Z,1.00
2022-08-31T14:37:19.819Z,1.13
2022-08-31T14:40:04.190Z,1.17
2022-08-31T14:42:37.746Z,1.15
2022-08-31T14:45:09.023Z,1.02
2022-08-31T14:47:43.789Z,1.20
2022-08-31T14:50:12.727Z,1.13
2022-08-31T14:52:45.377Z,1.02
2022-08-31T14:55:16.249Z,1.20
2022-08-31T14:57:50.709Z,0.93
2022-08-31T15:00:22.055Z,0.88
2022-08-31T15:02:53.316Z,1.00
2022-08-31T15:05:23.936Z,1.10
2022-08-31T15:07:53.482Z,0.93
2022-08-31T15:10:25.671Z,0.90
2022-08-31T15:12:55.702Z,1.05
2022-08-31T15:15:26.682Z,0.93
2022-08-31T15:17:56.741Z,0.80
2022-08-31T15:20:24.869Z,0.90
2022-08-31T15:22:52.923Z,1.10
2022-08-31T15:25:26.193Z,1.00
2022-08-31T15:27:54.326Z,0.85
2022-08-31T15:30:23.056Z,0.90
2022-08-31T15:32:52.876Z,0.85
2022-08-31T15:35:24.408Z,0.90
2022-08-31T15:37:56.478Z,0.80
2022-08-31T15:40:29.296Z,1.05
2022-08-31T15:42:57.912Z,0.90
2022-08-31T15:45:29.933Z,0.85
2022-08-31T15:48:16.378Z,0.70
2022-08-31T15:50:52.691Z,1.05
2022-08-31T15:53:27.276Z,1.10
2022-08-31T15:55:57.458Z,0.80
2022-08-31T15:58:31.652Z,0.98
2022-08-31T16:01:00.111Z,0.80
2022-08-31T16:03:33.265Z,0.70
2022-08-31T16:06:04.496Z,0.90
2022-08-31T16:08:32.553Z,1.10
2022-08-31T16:11:01.961Z,0.90
2022-08-31T16:13:30.068Z,1.00
2022-08-31T16:15:58.051Z,1.10
2022-08-31T16:18:26.064Z,0.90
2022-08-31T16:20:54.132Z,0.90
2022-08-31T16:23:24.741Z,0.90
2022-08-31T16:25:52.744Z,1.00
2022-08-31T16:28:22.893Z,1.00
2022-08-31T16:30:54.093Z,0.98
2022-08-31T16:33:22.096Z,1.05
2022-08-31T16:35:53.441Z,1.08
2022-08-31T16:38:21.690Z,0.90
2022-08-31T16:40:49.937Z,0.98
2022-08-31T16:43:18.115Z,1.10
2022-08-31T16:45:50.122Z,1.10
2022-08-31T16:48:35.824Z,0.80
2022-08-31T16:51:03.972Z,0.90
2022-08-31T16:53:32.496Z,0.98
2022-08-31T16:56:03.533Z,1.17
2022-08-31T17:01:24.465Z,1.17
2022-08-31T17:03:55.800Z,1.10
2022-08-31T17:06:24.038Z,1.10
2022-08-31T17:08:54.583Z,1.10
2022-08-31T17:11:25.460Z,1.02
2022-08-31T17:13:58.459Z,1.10
2022-08-31T17:16:30.889Z,0.82
2022-08-31T17:18:59.691Z,0.88
2022-08-31T17:21:29.891Z,0.88
2022-08-31T17:23:59.419Z,1.00
2022-08-31T17:29:32.528Z,1.15
2022-08-31T17:32:06.396Z,1.00
2022-08-31T17:34:36.874Z,1.20
2022-08-31T17:37:08.873Z,1.23
2022-08-31T17:39:38.373Z,1.20
2022-08-31T17:42:07.140Z,1.00
2022-08-31T17:44:36.109Z,1.20
2022-08-31T17:47:08.039Z,1.20
2022-08-31T17:49:37.886Z,0.93
2022-08-31T17:52:08.527Z,1.10
2022-08-31T17:54:40.155Z,0.90
2022-08-31T17:57:11.229Z,0.88
2022-08-31T17:59:41.692Z,0.88
2022-08-31T18:02:17.833Z,1.10
2022-08-31T18:04:46.388Z,1.00
2022-08-31T18:07:15.302Z,1.17
2022-08-31T18:09:45.646Z,0.90
2022-08-31T18:12:15.182Z,0.90
2022-08-31T18:14:43.519Z,0.98
2022-08-31T18:17:16.284Z,1.05
2022-08-31T18:19:45.065Z,1.10
2022-08-31T18:22:14.402Z,1.05
2022-08-31T18:24:44.491Z,0.80
2022-08-31T18:27:15.557Z,0.90
2022-08-31T18:29:44.392Z,1.10
2022-08-31T18:32:14.619Z,1.02
2022-08-31T18:34:47.607Z,1.00
2022-08-31T18:37:21.922Z,1.00
2022-08-31T18:40:12.601Z,1.00
2022-08-31T18:42:59.387Z,1.02
2022-08-31T18:45:28.268Z,0.90
2022-08-31T18:48:35.139Z,1.23
2022-08-31T18:50:50.410Z,0.90
2022-08-31T18:53:27.445Z,0.80
2022-08-31T18:55:58.836Z,0.88
2022-08-31T18:58:26.829Z,1.10
2022-08-31T19:00:57.396Z,0.98
2022-08-31T19:03:28.898Z,1.02
2022-08-31T19:05:57.448Z,0.80
2022-08-31T19:08:26.392Z,1.05
2022-08-31T19:10:57.623Z,1.00
2022-08-31T19:13:28.623Z,1.10
2022-08-31T19:16:00.698Z,1.20
2022-08-31T19:18:31.898Z,1.05
2022-08-31T19:20:59.942Z,1.20
2022-08-31T19:23:28.297Z,1.23
2022-08-31T19:25:56.400Z,1.13
2022-08-31T19:28:24.373Z,1.00
2022-08-31T19:30:52.431Z,1.13
2022-08-31T19:33:25.026Z,0.80
2022-08-31T19:36:03.464Z,1.10
2022-08-31T19:38:32.640Z,1.30
2022-08-31T19:41:01.483Z,1.00
2022-08-31T19:43:53.727Z,0.73
2022-08-31T19:46:21.244Z,0.90
2022-08-31T19:48:50.422Z,0.88
2022-08-31T19:51:24.417Z,1.42
2022-08-31T19:53:52.411Z,1.23
2022-08-31T19:56:23.022Z,1.40
2022-08-31T19:58:53.130Z,1.02
2022-08-31T20:01:25.057Z,0.90
2022-08-31T20:03:54.198Z,0.73
2022-08-31T20:06:25.228Z,0.98
2022-08-31T20:08:54.506Z,1.10
2022-08-31T20:11:24.744Z,1.00
2022-08-31T20:13:52.774Z,0.95
2022-08-31T20:16:22.319Z,0.85
2022-08-31T20:19:03.882Z,0.98
2022-08-31T20:21:35.272Z,1.20
2022-08-31T20:24:06.018Z,1.10
2022-08-31T20:26:38.223Z,0.90
2022-08-31T20:29:18.043Z,1.05
2022-08-31T20:31:50.054Z,1.25
2022-08-31T20:34:22.456Z,1.20
2022-08-31T20:37:00.527Z,0.90
2022-08-31T20:39:31.218Z,0.75
2022-08-31T20:42:00.832Z,1.00
2022-08-31T20:44:31.629Z,1.27
2022-08-31T20:47:19.469Z,1.15
2022-08-31T20:49:56.235Z,0.90
2022-08-31T20:52:30.662Z,1.15
2022-08-31T20:55:01.761Z,1.40
2022-08-31T20:57:31.901Z,0.90
2022-08-31T21:00:04.873Z,1.10
2022-08-31T21:02:34.503Z,0.98
2022-08-31T21:07:53.292Z,1.08
2022-08-31T21:10:36.174Z,1.25
2022-08-31T21:13:10.995Z,1.20
2022-08-31T21:15:44.169Z,1.20
2022-08-31T21:18:15.956Z,1.10
2022-08-31T21:20:44.113Z,1.08
2022-08-31T21:23:13.499Z,1.10
2022-08-31T21:25:45.104Z,1.25
2022-08-31T21:28:14.612Z,1.00
2022-08-31T21:30:42.604Z,1.00
2022-08-31T21:33:10.692Z,1.23
2022-08-31T21:35:38.662Z,1.08
2022-08-31T21:38:07.406Z,0.85
2022-08-31T21:40:37.144Z,1.00
2022-08-31T21:43:05.282Z,1.08
2022-08-31T21:45:33.459Z,1.08
2022-08-31T21:48:02.762Z,1.10
2022-08-31T21:50:30.772Z,1.20
2022-08-31T21:53:00.517Z,1.10
2022-08-31T21:55:28.972Z,0.90
2022-08-31T21:57:59.222Z,1.10
2022-08-31T22:00:29.787Z,1.20
2022-08-31T22:02:58.437Z,1.40
2022-08-31T22:05:30.219Z,1.00
2022-08-31T22:07:58.229Z,1.08
2022-08-31T22:10:29.012Z,1.10
2022-08-31T22:12:58.704Z,0.90
2022-08-31T22:15:28.086Z,1.20
2022-08-31T22:18:18.018Z,0.88
2022-08-31T22:20:45.874Z,1.25
2022-08-31T22:23:14.234Z,1.27
2022-08-31T22:25:42.171Z,1.13
2022-08-31T22:28:12.781Z,1.20
2022-08-31T22:30:43.557Z,1.05
2022-08-31T22:33:12.389Z,1.05
2022-08-31T22:35:41.523Z,1.20
2022-08-31T22:38:13.209Z,0.90
2022-08-31T22:40:42.206Z,1.00
2022-08-31T22:43:13.490Z,1.20
2022-08-31T22:45:48.663Z,1.20
2022-08-31T22:48:17.024Z,1.05
2022-08-31T22:50:44.978Z,1.08
2022-08-31T22:53:15.941Z,1.10
2022-08-31T22:55:44.120Z,1.20
2022-08-31T22:58:16.663Z,1.23
2022-08-31T23:00:48.009Z,1.10
2022-08-31T23:03:17.136Z,1.20
2022-08-31T23:05:47.070Z,1.10
2022-08-31T23:08:16.109Z,1.25
2022-08-31T23:10:46.121Z,1.52
2022-08-31T23:13:17.763Z,1.30
2022-08-31T23:15:46.350Z,1.33
2022-08-31T23:18:14.404Z,1.35
2022-08-31T23:20:42.624Z,1.23
2022-08-31T23:23:11.294Z,1.80
2022-08-31T23:25:41.760Z,1.30
2022-08-31T23:28:09.830Z,1.50
2022-08-31T23:30:40.397Z,1.58
2022-08-31T23:33:08.375Z,1.52
2022-08-31T23:35:36.364Z,1.80
2022-08-31T23:38:04.480Z,1.45
2022-08-31T23:40:32.575Z,1.83
2022-08-31T23:43:00.673Z,2.20
2022-08-31T23:45:28.741Z,2.00
2022-08-31T23:47:58.088Z,2.30
2022-08-31T23:50:26.064Z,1.92
2022-08-31T23:52:57.506Z,2.47
2022-08-31T23:55:31.020Z,2.50
2022-08-31T23:57:59.394Z,2.05
